createdAt,value
2022-10-02T00:01:58.546Z,99950.00
2022-10-02T00:04:33.441Z,99959.00
2022-10-02T00:07:07.515Z,99965.00
2022-10-02T00:09:39.835Z,99968.00
2022-10-02T00:12:12.611Z,99965.00
2022-10-02T00:14:43.898Z,99973.00
2022-10-02T00:17:19.480Z,99982.00
2022-10-02T00:19:47.973Z,99986.00
2022-10-02T00:22:36.391Z,99980.00
2022-10-02T00:25:11.216Z,99992.00
2022-10-02T00:27:54.424Z,99987.00
2022-10-02T00:30:23.086Z,99993.00
2022-10-02T00:33:04.614Z,99996.00
2022-10-02T00:36:00.695Z,100006.00
2022-10-02T00:38:38.921Z,100010.00
2022-10-02T00:41:27.148Z,100008.00
2022-10-02T00:44:19.162Z,100012.00
2022-10-02T00:46:54.538Z,100011.00
2022-10-02T00:49:49.975Z,100017.00
2022-10-02T00:52:44.156Z,100007.00
2022-10-02T00:55:37.980Z,100008.00
2022-10-02T00:58:39.062Z,100010.00
2022-10-02T01:01:14.735Z,100005.00
2022-10-02T01:03:44.858Z,100011.00
2022-10-02T01:06:14.218Z,100012.00
2022-10-02T01:08:42.657Z,100023.00
2022-10-02T01:11:13.522Z,100020.00
2022-10-02T01:13:42.027Z,100028.00
2022-10-02T01:16:14.491Z,100028.00
2022-10-02T01:18:45.946Z,100039.00
2022-10-02T01:21:17.670Z,100037.00
2022-10-02T01:23:54.065Z,100038.00
2022-10-02T01:26:24.183Z,100045.00
2022-10-02T01:28:52.651Z,100040.00
2022-10-02T01:31:21.192Z,100042.00
2022-10-02T01:33:49.912Z,100039.00
2022-10-02T01:36:18.606Z,100051.00
2022-10-02T01:38:49.531Z,100048.00
2022-10-02T01:41:18.032Z,100050.00
2022-10-02T01:43:51.121Z,100041.00
2022-10-02T01:46:32.621Z,100046.00
2022-10-02T01:49:12.847Z,100055.00
2022-10-02T01:52:17.777Z,100054.00
2022-10-02T01:54:56.392Z,100062.00
2022-10-02T01:57:35.629Z,100081.00
2022-10-02T02:00:09.407Z,100073.00
2022-10-02T02:02:48.537Z,100066.00
2022-10-02T02:05:29.765Z,100076.00
2022-10-02T02:08:07.729Z,100073.00
2022-10-02T02:10:46.615Z,100083.00
2022-10-02T02:13:20.232Z,100084.00
2022-10-02T02:15:55.516Z,100083.00
2022-10-02T02:18:29.891Z,100086.00
2022-10-02T02:21:03.757Z,100086.00
2022-10-02T02:23:36.422Z,100085.00
2022-10-02T02:26:09.483Z,100085.00
2022-10-02T02:28:39.180Z,100093.00
2022-10-02T02:31:12.672Z,100090.00
2022-10-02T02:33:44.906Z,100084.00
2022-10-02T02:36:16.963Z,100084.00
2022-10-02T02:38:49.984Z,100086.00
2022-10-02T02:41:21.938Z,100094.00
2022-10-02T02:43:55.045Z,100087.00
2022-10-02T02:46:30.486Z,100095.00
2022-10-02T02:49:05.114Z,100100.00
2022-10-02T02:51:38.684Z,100089.00
2022-10-02T02:54:13.745Z,100098.00
2022-10-02T02:56:43.667Z,100099.00
2022-10-02T02:59:13.159Z,100093.00
2022-10-02T03:01:43.339Z,100101.00
2022-10-02T03:04:13.978Z,100101.00
2022-10-02T03:06:45.510Z,100102.00
2022-10-02T03:09:17.582Z,100106.00
2022-10-02T03:11:54.009Z,100115.00
2022-10-02T03:14:42.807Z,100105.00
2022-10-02T03:17:27.049Z,100102.00
2022-10-02T03:20:02.319Z,100114.00
2022-10-02T03:22:41.422Z,100105.00
2022-10-02T03:25:16.117Z,100110.00
2022-10-02T03:27:49.108Z,100107.00
2022-10-02T03:30:20.679Z,100117.00
2022-10-02T03:32:53.703Z,100113.00
2022-10-02T03:35:24.545Z,100110.00
2022-10-02T03:37:58.037Z,100112.00
2022-10-02T03:40:27.579Z,100116.00
2022-10-02T03:42:58.341Z,100109.00
2022-10-02T03:45:49.352Z,100109.00
2022-10-02T03:48:17.739Z,100113.00
2022-10-02T03:50:46.307Z,100108.00
2022-10-02T03:53:16.853Z,100107.00
2022-10-02T03:55:49.337Z,100122.00
2022-10-02T03:58:19.697Z,100113.00
2022-10-02T04:00:54.465Z,100123.00
2022-10-02T04:03:28.223Z,100120.00
2022-10-02T04:06:02.076Z,100118.00
2022-10-02T04:08:37.093Z,100120.00
2022-10-02T04:11:11.707Z,100123.00
2022-10-02T04:13:49.943Z,100123.00
2022-10-02T04:16:24.546Z,100137.00
2022-10-02T04:18:59.710Z,100123.00
2022-10-02T04:21:36.483Z,100127.00
2022-10-02T04:24:13.429Z,100126.00
2022-10-02T04:26:46.958Z,100121.00
2022-10-02T04:29:21.549Z,100118.00
2022-10-02T04:31:55.630Z,100123.00
2022-10-02T04:34:25.470Z,100123.00
2022-10-02T04:37:23.786Z,100120.00
2022-10-02T04:40:19.466Z,100105.00
2022-10-02T04:43:01.858Z,100115.00
2022-10-02T04:45:47.988Z,100120.00
2022-10-02T04:48:38.205Z,100118.00
2022-10-02T04:51:18.984Z,100124.00
2022-10-02T04:53:59.439Z,100125.00
2022-10-02T04:56:55.251Z,100131.00
2022-10-02T04:59:36.684Z,100130.00
2022-10-02T05:02:21.539Z,100120.00
2022-10-02T05:05:08.399Z,100109.00
2022-10-02T05:08:11.893Z,100111.00
2022-10-02T05:10:51.211Z,100107.00
2022-10-02T05:13:36.882Z,100125.00
2022-10-02T05:16:24.663Z,100113.00
2022-10-02T05:19:06.715Z,100127.00
2022-10-02T05:21:49.471Z,100129.00
2022-10-02T05:24:44.586Z,100125.00
2022-10-02T05:27:31.995Z,100131.00
2022-10-02T05:30:10.230Z,100138.00
2022-10-02T05:33:04.549Z,100127.00
2022-10-02T05:35:45.688Z,100136.00
2022-10-02T05:38:27.485Z,100133.00
2022-10-02T05:41:04.991Z,100141.00
2022-10-02T05:43:42.270Z,100143.00
2022-10-02T05:46:15.622Z,100140.00
2022-10-02T05:48:48.453Z,100149.00
2022-10-02T05:51:24.155Z,100153.00
2022-10-02T05:53:59.078Z,100149.00
2022-10-02T05:56:38.846Z,100149.00
2022-10-02T05:59:13.448Z,100145.00
2022-10-02T06:01:45.849Z,100145.00
2022-10-02T06:04:22.288Z,100143.00
2022-10-02T06:06:53.673Z,100140.00
2022-10-02T06:09:26.863Z,100143.00
2022-10-02T06:12:01.738Z,100148.00
2022-10-02T06:14:35.570Z,100133.00
2022-10-02T06:17:08.743Z,100142.00
2022-10-02T06:19:41.737Z,100145.00
2022-10-02T06:22:14.737Z,100147.00
2022-10-02T06:24:49.428Z,100143.00
2022-10-02T06:27:29.056Z,100140.00
2022-10-02T06:30:01.527Z,100152.00
2022-10-02T06:32:38.521Z,100150.00
2022-10-02T06:35:12.635Z,100144.00
2022-10-02T06:37:58.347Z,100147.00
2022-10-02T06:40:44.375Z,100147.00
2022-10-02T06:43:24.834Z,100150.00
2022-10-02T06:46:01.366Z,100155.00
2022-10-02T06:48:41.196Z,100153.00
2022-10-02T06:51:18.845Z,100158.00
2022-10-02T06:54:05.261Z,100163.00
2022-10-02T06:56:45.777Z,100145.00
2022-10-02T06:59:29.400Z,100149.00
2022-10-02T07:02:11.160Z,100143.00
2022-10-02T07:04:58.266Z,100137.00
2022-10-02T07:07:41.957Z,100140.00
2022-10-02T07:10:27.211Z,100138.00
2022-10-02T07:13:19.346Z,100141.00
2022-10-02T07:16:23.002Z,100145.00
2022-10-02T07:19:08.380Z,100142.00
2022-10-02T07:21:46.265Z,100149.00
2022-10-02T07:24:31.410Z,100146.00
2022-10-02T07:27:06.671Z,100145.00
2022-10-02T07:29:46.144Z,100152.00
2022-10-02T07:32:50.650Z,100161.00
2022-10-02T07:35:30.331Z,100148.00
2022-10-02T07:38:20.261Z,100140.00
2022-10-02T07:41:00.558Z,100147.00
2022-10-02T07:43:42.821Z,100143.00
2022-10-02T07:46:19.816Z,100144.00
2022-10-02T07:49:04.577Z,100163.00
2022-10-02T07:51:50.123Z,100147.00
2022-10-02T07:54:49.961Z,100158.00
2022-10-02T07:57:32.377Z,100148.00
2022-10-02T08:00:06.998Z,100160.00
2022-10-02T08:02:40.911Z,100149.00
2022-10-02T08:05:19.709Z,100143.00
2022-10-02T08:07:50.879Z,100156.00
2022-10-02T08:10:25.709Z,100148.00
2022-10-02T08:13:04.210Z,100164.00
2022-10-02T08:15:37.178Z,100161.00
2022-10-02T08:18:33.547Z,100154.00
2022-10-02T08:21:06.464Z,100157.00
2022-10-02T08:23:40.835Z,100157.00
2022-10-02T08:26:15.575Z,100158.00
2022-10-02T08:28:50.476Z,100148.00
2022-10-02T08:31:18.982Z,100160.00
2022-10-02T08:33:47.897Z,100146.00
2022-10-02T08:36:38.880Z,100148.00
2022-10-02T08:39:25.007Z,100146.00
2022-10-02T08:42:23.746Z,100148.00
2022-10-02T08:45:21.721Z,100147.00
2022-10-02T08:48:16.780Z,100158.00
2022-10-02T08:51:10.113Z,100159.00
2022-10-02T08:54:13.984Z,100164.00
2022-10-02T08:56:59.824Z,100168.00
2022-10-02T08:59:57.635Z,100161.00
2022-10-02T09:03:20.617Z,100149.00
2022-10-02T09:06:28.687Z,100158.00
2022-10-02T09:09:34.642Z,100151.00
2022-10-02T09:12:44.470Z,100167.00
2022-10-02T09:15:20.122Z,100134.00
2022-10-02T09:17:54.878Z,100151.00
2022-10-02T09:20:42.371Z,100151.00
2022-10-02T09:23:43.580Z,100137.00
2022-10-02T09:26:22.962Z,100132.00
2022-10-02T09:29:30.664Z,100141.00
2022-10-02T09:32:34.716Z,100144.00
2022-10-02T09:35:26.456Z,100145.00
2022-10-02T09:38:38.319Z,100142.00
2022-10-02T09:41:49.598Z,100139.00
2022-10-02T09:44:48.631Z,100143.00
2022-10-02T09:47:36.993Z,100146.00
2022-10-02T09:50:31.725Z,100139.00
2022-10-02T09:53:32.570Z,100143.00
2022-10-02T09:56:39.573Z,100132.00
2022-10-02T09:59:44.725Z,100124.00
2022-10-02T10:02:52.472Z,100117.00
2022-10-02T10:05:50.703Z,100125.00
2022-10-02T10:08:57.190Z,100102.00
2022-10-02T10:12:06.545Z,100115.00
2022-10-02T10:15:09.412Z,100115.00
2022-10-02T10:18:26.714Z,100110.00
2022-10-02T10:21:38.250Z,100102.00
2022-10-02T10:24:47.217Z,100104.00
2022-10-02T10:27:52.237Z,100103.00
2022-10-02T10:30:50.285Z,100105.00
2022-10-02T10:33:44.148Z,100110.00
2022-10-02T10:36:52.318Z,100111.00
2022-10-02T10:39:47.294Z,100106.00
2022-10-02T10:42:37.782Z,100115.00
2022-10-02T10:45:31.344Z,100108.00
2022-10-02T10:48:37.530Z,100118.00
2022-10-02T10:51:30.549Z,100101.00
2022-10-02T10:54:31.595Z,100097.00
2022-10-02T10:57:10.759Z,100113.00
2022-10-02T11:00:18.667Z,100116.00
2022-10-02T11:03:19.849Z,100115.00
2022-10-02T11:06:31.127Z,100103.00
2022-10-02T11:09:47.874Z,100101.00
2022-10-02T11:12:47.673Z,100097.00
2022-10-02T11:15:59.253Z,100099.00
2022-10-02T11:18:43.522Z,100097.00
2022-10-02T11:21:39.876Z,100104.00
2022-10-02T11:24:58.082Z,100097.00
2022-10-02T11:28:18.773Z,100099.00
2022-10-02T11:31:01.655Z,100098.00
2022-10-02T11:33:59.953Z,100103.00
2022-10-02T11:36:52.758Z,100101.00
2022-10-02T11:39:59.839Z,100099.00
2022-10-02T11:42:58.861Z,100092.00
2022-10-02T11:45:55.487Z,100083.00
2022-10-02T11:48:54.032Z,100103.00
2022-10-02T11:51:46.306Z,100107.00
2022-10-02T11:54:27.885Z,100093.00
2022-10-02T11:57:19.527Z,100102.00
2022-10-02T12:00:12.538Z,100101.00
2022-10-02T12:02:49.329Z,100091.00
2022-10-02T12:05:36.434Z,100093.00
2022-10-02T12:08:17.451Z,100083.00
2022-10-02T12:10:56.741Z,100085.00
2022-10-02T12:13:48.205Z,100090.00
2022-10-02T12:16:28.612Z,100088.00
2022-10-02T12:19:12.349Z,100081.00
2022-10-02T12:22:14.551Z,100073.00
2022-10-02T12:25:10.119Z,100070.00
2022-10-02T12:27:53.085Z,100077.00
2022-10-02T12:30:24.080Z,100075.00
2022-10-02T12:33:13.019Z,100081.00
2022-10-02T12:36:13.660Z,100073.00
2022-10-02T12:38:52.210Z,100068.00
2022-10-02T12:41:39.861Z,100069.00
2022-10-02T12:44:37.566Z,100065.00
2022-10-02T12:47:42.801Z,100068.00
2022-10-02T12:50:23.328Z,100054.00
2022-10-02T12:53:37.511Z,100060.00
2022-10-02T12:56:45.748Z,100047.00
2022-10-02T12:59:26.078Z,100061.00
2022-10-02T13:02:59.960Z,100060.00
2022-10-02T13:06:10.838Z,100061.00
2022-10-02T13:08:54.022Z,100069.00
2022-10-02T13:11:36.596Z,100060.00
2022-10-02T13:14:26.406Z,100062.00
2022-10-02T13:17:14.070Z,100042.00
2022-10-02T13:19:53.556Z,100054.00
2022-10-02T13:22:31.382Z,100048.00
2022-10-02T13:25:19.999Z,100057.00
2022-10-02T13:28:00.825Z,100047.00
2022-10-02T13:30:36.761Z,100049.00
2022-10-02T13:33:20.328Z,100044.00
2022-10-02T13:36:04.436Z,100048.00
2022-10-02T13:38:46.861Z,100057.00
2022-10-02T13:41:28.851Z,100049.00
2022-10-02T13:44:12.237Z,100056.00
2022-10-02T13:46:56.772Z,100064.00
2022-10-02T13:49:38.051Z,100063.00
2022-10-02T13:52:17.119Z,100043.00
2022-10-02T13:55:02.389Z,100038.00
2022-10-02T13:57:48.564Z,100040.00
2022-10-02T14:00:41.554Z,100050.00
2022-10-02T14:03:24.914Z,100066.00
2022-10-02T14:05:59.820Z,100062.00
2022-10-02T14:08:44.056Z,100079.00
2022-10-02T14:11:22.422Z,100080.00
2022-10-02T14:14:05.066Z,100075.00
2022-10-02T14:16:50.753Z,100070.00
2022-10-02T14:19:43.228Z,100076.00
2022-10-02T14:22:28.668Z,100081.00
2022-10-02T14:25:12.807Z,100083.00
2022-10-02T14:28:15.774Z,100068.00
2022-10-02T14:31:14.388Z,100065.00
2022-10-02T14:34:14.669Z,100060.00
2022-10-02T14:36:50.874Z,100059.00
2022-10-02T14:39:32.738Z,100079.00
2022-10-02T14:42:21.795Z,100074.00
2022-10-02T14:45:16.921Z,100075.00
2022-10-02T14:48:03.963Z,100073.00
2022-10-02T14:50:59.196Z,100066.00
2022-10-02T14:53:45.349Z,100068.00
2022-10-02T14:56:39.318Z,100062.00
2022-10-02T14:59:27.931Z,100066.00
2022-10-02T15:02:13.843Z,100067.00
2022-10-02T15:04:51.180Z,100077.00
2022-10-02T15:07:24.040Z,100081.00
2022-10-02T15:10:07.902Z,100083.00
2022-10-02T15:12:47.964Z,100070.00
2022-10-02T15:15:21.772Z,100074.00
2022-10-02T15:18:00.403Z,100081.00
2022-10-02T15:20:39.204Z,100080.00
2022-10-02T15:23:12.316Z,100077.00
2022-10-02T15:26:07.431Z,100094.00
2022-10-02T15:28:48.741Z,100096.00
2022-10-02T15:31:26.060Z,100096.00
2022-10-02T15:34:07.597Z,100090.00
2022-10-02T15:36:57.304Z,100098.00
2022-10-02T15:39:48.672Z,100096.00
2022-10-02T15:42:21.940Z,100100.00
2022-10-02T15:45:07.427Z,100096.00
2022-10-02T15:47:53.153Z,100102.00
2022-10-02T15:50:30.632Z,100112.00
2022-10-02T15:53:26.855Z,100110.00
2022-10-02T15:56:00.597Z,100105.00
2022-10-02T15:58:50.380Z,100110.00
2022-10-02T16:01:32.892Z,100115.00
2022-10-02T16:04:11.999Z,100112.00
2022-10-02T16:06:54.186Z,100121.00
2022-10-02T16:09:36.911Z,100125.00
2022-10-02T16:12:25.899Z,100131.00
2022-10-02T16:15:03.878Z,100126.00
2022-10-02T16:18:16.688Z,100129.00
2022-10-02T16:21:06.395Z,100128.00
2022-10-02T16:24:01.600Z,100132.00
2022-10-02T16:26:43.610Z,100137.00
2022-10-02T16:29:24.045Z,100141.00
2022-10-02T16:32:15.225Z,100136.00
2022-10-02T16:34:56.816Z,100142.00
2022-10-02T16:37:29.288Z,100133.00
2022-10-02T16:40:01.457Z,100149.00
2022-10-02T16:42:44.121Z,100148.00
2022-10-02T16:45:31.203Z,100147.00
2022-10-02T16:48:08.942Z,100159.00
2022-10-02T16:50:53.964Z,100183.00
2022-10-02T16:53:27.086Z,100192.00
2022-10-02T16:56:06.377Z,100200.00
2022-10-02T16:58:43.321Z,100196.00
2022-10-02T17:01:28.581Z,100195.00
2022-10-02T17:04:22.044Z,100191.00
2022-10-02T17:06:59.256Z,100201.00
2022-10-02T17:09:34.551Z,100205.00
2022-10-02T17:12:11.141Z,100203.00
2022-10-02T17:14:49.196Z,100209.00
2022-10-02T17:17:23.198Z,100212.00
2022-10-02T17:20:04.343Z,100221.00
2022-10-02T17:22:39.399Z,100219.00
2022-10-02T17:25:18.739Z,100218.00
2022-10-02T17:27:53.580Z,100224.00
2022-10-02T17:30:24.453Z,100226.00
2022-10-02T17:33:06.944Z,100224.00
2022-10-02T17:35:48.153Z,100216.00
2022-10-02T17:38:48.701Z,100231.00
2022-10-02T17:41:29.355Z,100230.00
2022-10-02T17:44:07.484Z,100236.00
2022-10-02T17:47:10.254Z,100234.00
2022-10-02T17:49:51.089Z,100244.00
2022-10-02T17:52:46.516Z,100249.00
2022-10-02T17:55:57.974Z,100249.00
2022-10-02T17:58:39.398Z,100253.00
2022-10-02T18:01:19.833Z,100259.00
2022-10-02T18:04:09.096Z,100268.00
2022-10-02T18:06:43.931Z,100267.00
2022-10-02T18:09:29.761Z,100275.00
2022-10-02T18:12:40.341Z,100277.00
2022-10-02T18:15:23.605Z,100290.00
2022-10-02T18:18:22.033Z,100285.00
2022-10-02T18:20:59.352Z,100279.00
2022-10-02T18:23:51.291Z,100286.00
2022-10-02T18:26:33.130Z,100294.00
2022-10-02T18:29:17.610Z,100304.00
2022-10-02T18:32:12.789Z,100305.00
2022-10-02T18:35:15.452Z,100301.00
2022-10-02T18:38:12.888Z,100309.00
2022-10-02T18:40:54.976Z,100311.00
2022-10-02T18:43:41.880Z,100314.00
2022-10-02T18:46:22.615Z,100313.00
2022-10-02T18:49:04.588Z,100318.00
2022-10-02T18:51:56.245Z,100316.00
2022-10-02T18:54:33.092Z,100326.00
2022-10-02T18:57:19.693Z,100337.00
2022-10-02T18:59:59.483Z,100335.00
2022-10-02T19:02:43.173Z,100348.00
2022-10-02T19:05:26.804Z,100347.00
2022-10-02T19:08:08.490Z,100355.00
2022-10-02T19:10:44.917Z,100347.00
2022-10-02T19:13:18.416Z,100358.00
2022-10-02T19:15:50.601Z,100364.00
2022-10-02T19:18:24.017Z,100357.00
2022-10-02T19:20:57.061Z,100360.00
2022-10-02T19:23:30.338Z,100363.00
2022-10-02T19:26:02.963Z,100365.00
2022-10-02T19:28:35.416Z,100368.00
2022-10-02T19:31:08.074Z,100371.00
2022-10-02T19:33:45.992Z,100371.00
2022-10-02T19:36:19.020Z,100383.00
2022-10-02T19:38:53.940Z,100383.00
2022-10-02T19:41:23.524Z,100380.00
2022-10-02T19:43:59.032Z,100375.00
2022-10-02T19:46:37.198Z,100381.00
2022-10-02T19:49:07.756Z,100385.00
2022-10-02T19:51:45.336Z,100388.00
2022-10-02T19:54:20.478Z,100392.00
2022-10-02T19:56:52.736Z,100377.00
2022-10-02T19:59:26.737Z,100378.00
2022-10-02T20:02:02.125Z,100375.00
2022-10-02T20:04:32.409Z,100380.00
2022-10-02T20:07:02.108Z,100389.00
2022-10-02T20:09:36.164Z,100390.00
2022-10-02T20:12:14.909Z,100392.00
2022-10-02T20:14:47.376Z,100396.00
2022-10-02T20:17:17.858Z,100397.00
2022-10-02T20:19:50.845Z,100406.00
2022-10-02T20:22:31.484Z,100405.00
2022-10-02T20:25:06.640Z,100417.00
2022-10-02T20:27:42.272Z,100423.00
2022-10-02T20:30:17.057Z,100415.00
2022-10-02T20:32:52.378Z,100423.00
2022-10-02T20:35:29.173Z,100427.00
2022-10-02T20:38:00.109Z,100440.00
2022-10-02T20:40:32.884Z,100439.00
2022-10-02T20:43:05.996Z,100442.00
2022-10-02T20:45:40.508Z,100449.00
2022-10-02T20:49:03.457Z,100454.00
2022-10-02T20:52:06.826Z,100462.00
2022-10-02T20:54:44.479Z,100455.00
2022-10-02T20:57:56.008Z,100460.00
2022-10-02T21:00:23.009Z,100455.00
2022-10-02T21:03:26.811Z,100470.00
2022-10-02T21:06:28.564Z,100469.00
2022-10-02T21:09:33.725Z,100470.00
2022-10-02T21:12:23.464Z,100476.00
2022-10-02T21:15:24.848Z,100473.00
2022-10-02T21:18:21.795Z,100476.00
2022-10-02T21:21:20.150Z,100469.00
2022-10-02T21:24:33.096Z,100485.00
2022-10-02T21:27:27.057Z,100475.00
2022-10-02T21:30:05.149Z,100486.00
2022-10-02T21:33:01.223Z,100491.00
2022-10-02T21:35:42.143Z,100490.00
2022-10-02T21:38:46.204Z,100490.00
2022-10-02T21:41:53.273Z,100505.00
2022-10-02T21:44:50.427Z,100499.00
2022-10-02T21:48:11.227Z,100504.00
2022-10-02T21:51:20.644Z,100495.00
2022-10-02T21:54:18.110Z,100502.00
2022-10-02T21:57:19.061Z,100510.00
2022-10-02T22:00:16.726Z,100512.00
2022-10-02T22:03:28.684Z,100512.00
2022-10-02T22:06:07.051Z,100513.00
2022-10-02T22:08:51.528Z,100515.00
2022-10-02T22:11:28.404Z,100514.00
2022-10-02T22:14:02.915Z,100519.00
2022-10-02T22:16:43.360Z,100520.00
2022-10-02T22:19:22.821Z,100516.00
2022-10-02T22:22:09.037Z,100523.00
2022-10-02T22:24:55.381Z,100524.00
2022-10-02T22:27:59.640Z,100524.00
2022-10-02T22:30:29.997Z,100523.00
2022-10-02T22:33:14.791Z,100514.00
2022-10-02T22:36:02.255Z,100522.00
2022-10-02T22:38:35.337Z,100525.00
2022-10-02T22:41:09.310Z,100525.00
2022-10-02T22:43:46.222Z,100535.00
2022-10-02T22:46:25.629Z,100530.00
2022-10-02T22:49:02.607Z,100536.00
2022-10-02T22:51:41.625Z,100522.00
2022-10-02T22:54:23.346Z,100540.00
2022-10-02T22:56:58.753Z,100529.00
2022-10-02T22:59:33.785Z,100535.00
2022-10-02T23:02:10.328Z,100533.00
2022-10-02T23:04:49.615Z,100524.00
2022-10-02T23:07:27.575Z,100533.00
2022-10-02T23:10:02.439Z,100535.00
2022-10-02T23:12:42.834Z,100536.00
2022-10-02T23:15:43.228Z,100534.00
2022-10-02T23:18:28.046Z,100545.00
2022-10-02T23:21:07.819Z,100544.00
2022-10-02T23:23:51.324Z,100554.00
2022-10-02T23:26:28.696Z,100548.00
2022-10-02T23:29:13.290Z,100549.00
2022-10-02T23:31:52.751Z,100553.00
2022-10-02T23:34:33.777Z,100557.00
2022-10-02T23:37:13.663Z,100561.00
2022-10-02T23:39:49.339Z,100552.00
2022-10-02T23:42:26.614Z,100565.00
2022-10-02T23:45:00.658Z,100558.00
2022-10-02T23:47:39.161Z,100558.00
2022-10-02T23:50:20.650Z,100561.00
2022-10-02T23:53:05.193Z,100568.00
2022-10-02T23:55:51.808Z,100571.00
2022-10-02T23:58:40.484Z,100575.00
